sensor_id;sensor_type;location;lat;lon;timestamp;temperature;humidity
27376;DHT22;14844;51.302;6.354;2023-07-30T00:01:05;15.30;99.90
27376;DHT22;14844;51.302;6.354;2023-07-30T00:03:31;15.30;99.90
27376;DHT22;14844;51.302;6.354;2023-07-30T00:05:56;15.30;99.90
27376;DHT22;14844;51.302;6.354;2023-07-30T00:08:22;15.20;99.90
27376;DHT22;14844;51.302;6.354;2023-07-30T00:10:47;15.20;99.90
27376;DHT22;14844;51.302;6.354;2023-07-30T00:13:13;15.20;99.90
27376;DHT22;14844;51.302;6.354;2023-07-30T00:15:38;15.20;99.90
27376;DHT22;14844;51.302;6.354;2023-07-30T00:18:04;15.10;99.90
27376;DHT22;14844;51.302;6.354;2023-07-30T00:20:29;15.10;99.90
27376;DHT22;14844;51.302;6.354;2023-07-30T00:22:55;15.10;99.90
27376;DHT22;14844;51.302;6.354;2023-07-30T00:25:20;15.00;99.90
27376;DHT22;14844;51.302;6.354;2023-07-30T00:27:45;15.00;99.90
27376;DHT22;14844;51.302;6.354;2023-07-30T00:30:11;15.00;99.90
27376;DHT22;14844;51.302;6.354;2023-07-30T00:32:36;15.00;99.90
27376;DHT22;14844;51.302;6.354;2023-07-30T00:35:06;15.00;99.90
27376;DHT22;14844;51.302;6.354;2023-07-30T00:37:31;15.00;99.90
27376;DHT22;14844;51.302;6.354;2023-07-30T00:39:57;15.00;99.90
27376;DHT22;14844;51.302;6.354;2023-07-30T00:42:22;14.90;99.90
27376;DHT22;14844;51.302;6.354;2023-07-30T00:44:48;14.90;99.90
27376;DHT22;14844;51.302;6.354;2023-07-30T00:47:13;14.80;99.90
27376;DHT22;14844;51.302;6.354;2023-07-30T00:49:39;14.80;99.90
27376;DHT22;14844;51.302;6.354;2023-07-30T00:52:04;14.70;99.90
27376;DHT22;14844;51.302;6.354;2023-07-30T00:54:30;14.60;99.90
27376;DHT22;14844;51.302;6.354;2023-07-30T00:56:56;14.60;99.90
27376;DHT22;14844;51.302;6.354;2023-07-30T00:59:21;14.60;99.90
27376;DHT22;14844;51.302;6.354;2023-07-30T01:01:47;14.60;99.90
27376;DHT22;14844;51.302;6.354;2023-07-30T01:04:13;14.60;99.90
27376;DHT22;14844;51.302;6.354;2023-07-30T01:06:39;14.60;99.90
27376;DHT22;14844;51.302;6.354;2023-07-30T01:09:04;14.70;99.90
27376;DHT22;14844;51.302;6.354;2023-07-30T01:11:30;14.70;99.90
27376;DHT22;14844;51.302;6.354;2023-07-30T01:13:55;14.70;99.90
27376;DHT22;14844;51.302;6.354;2023-07-30T01:16:21;14.70;99.90
27376;DHT22;14844;51.302;6.354;2023-07-30T01:18:47;14.70;99.90
27376;DHT22;14844;51.302;6.354;2023-07-30T01:21:12;14.70;99.90
27376;DHT22;14844;51.302;6.354;2023-07-30T01:23:38;14.70;99.90
27376;DHT22;14844;51.302;6.354;2023-07-30T01:26:05;14.60;99.90
27376;DHT22;14844;51.302;6.354;2023-07-30T01:28:34;14.60;99.90
27376;DHT22;14844;51.302;6.354;2023-07-30T01:31:01;14.60;99.90
27376;DHT22;14844;51.302;6.354;2023-07-30T01:33:27;14.50;99.90
27376;DHT22;14844;51.302;6.354;2023-07-30T01:35:53;14.50;99.90
27376;DHT22;14844;51.302;6.354;2023-07-30T01:38:20;14.50;99.90
27376;DHT22;14844;51.302;6.354;2023-07-30T01:40:46;14.50;99.90
27376;DHT22;14844;51.302;6.354;2023-07-30T01:43:11;14.50;99.90
27376;DHT22;14844;51.302;6.354;2023-07-30T01:45:37;14.40;99.90
27376;DHT22;14844;51.302;6.354;2023-07-30T01:48:03;14.40;99.90
27376;DHT22;14844;51.302;6.354;2023-07-30T01:50:29;14.40;99.90
27376;DHT22;14844;51.302;6.354;2023-07-30T01:52:54;14.40;99.90
27376;DHT22;14844;51.302;6.354;2023-07-30T01:55:20;14.40;99.90
27376;DHT22;14844;51.302;6.354;2023-07-30T01:57:45;14.30;99.90
27376;DHT22;14844;51.302;6.354;2023-07-30T02:00:11;14.30;99.90
27376;DHT22;14844;51.302;6.354;2023-07-30T02:02:36;14.20;99.90
27376;DHT22;14844;51.302;6.354;2023-07-30T02:05:02;14.20;99.90
27376;DHT22;14844;51.302;6.354;2023-07-30T02:07:27;14.20;99.90
27376;DHT22;14844;51.302;6.354;2023-07-30T02:09:53;14.20;99.90
27376;DHT22;14844;51.302;6.354;2023-07-30T02:12:18;14.30;99.90
27376;DHT22;14844;51.302;6.354;2023-07-30T02:14:44;14.30;99.90
27376;DHT22;14844;51.302;6.354;2023-07-30T02:17:09;14.30;99.90
27376;DHT22;14844;51.302;6.354;2023-07-30T02:19:35;14.30;99.90
27376;DHT22;14844;51.302;6.354;2023-07-30T02:22:00;14.20;99.90
27376;DHT22;14844;51.302;6.354;2023-07-30T02:24:25;14.20;99.90
27376;DHT22;14844;51.302;6.354;2023-07-30T02:26:51;14.20;99.90
27376;DHT22;14844;51.302;6.354;2023-07-30T02:29:16;14.10;99.90
27376;DHT22;14844;51.302;6.354;2023-07-30T02:31:42;14.10;99.90
27376;DHT22;14844;51.302;6.354;2023-07-30T02:34:07;14.10;99.90
27376;DHT22;14844;51.302;6.354;2023-07-30T02:36:33;14.10;99.90
27376;DHT22;14844;51.302;6.354;2023-07-30T02:38:58;14.10;99.90
27376;DHT22;14844;51.302;6.354;2023-07-30T02:41:24;14.10;99.90
27376;DHT22;14844;51.302;6.354;2023-07-30T02:43:49;14.00;99.90
27376;DHT22;14844;51.302;6.354;2023-07-30T02:46:15;14.00;99.90
27376;DHT22;14844;51.302;6.354;2023-07-30T02:48:40;14.00;99.90
27376;DHT22;14844;51.302;6.354;2023-07-30T02:51:06;14.00;99.90
27376;DHT22;14844;51.302;6.354;2023-07-30T02:53:31;14.00;99.90
27376;DHT22;14844;51.302;6.354;2023-07-30T02:55:56;14.00;99.90
27376;DHT22;14844;51.302;6.354;2023-07-30T02:58:22;14.10;99.90
27376;DHT22;14844;51.302;6.354;2023-07-30T03:00:47;14.00;99.90
27376;DHT22;14844;51.302;6.354;2023-07-30T03:03:13;14.10;99.90
27376;DHT22;14844;51.302;6.354;2023-07-30T03:05:41;14.00;99.90
27376;DHT22;14844;51.302;6.354;2023-07-30T03:08:06;14.00;99.90
27376;DHT22;14844;51.302;6.354;2023-07-30T03:10:32;14.00;99.90
27376;DHT22;14844;51.302;6.354;2023-07-30T03:12:57;13.90;99.90
27376;DHT22;14844;51.302;6.354;2023-07-30T03:15:23;13.90;99.90
27376;DHT22;14844;51.302;6.354;2023-07-30T03:17:48;13.90;99.90
27376;DHT22;14844;51.302;6.354;2023-07-30T03:20:13;13.90;99.90
27376;DHT22;14844;51.302;6.354;2023-07-30T03:22:39;13.90;99.90
27376;DHT22;14844;51.302;6.354;2023-07-30T03:25:04;14.00;99.90
27376;DHT22;14844;51.302;6.354;2023-07-30T03:27:30;13.90;99.90
27376;DHT22;14844;51.302;6.354;2023-07-30T03:29:56;13.90;99.90
27376;DHT22;14844;51.302;6.354;2023-07-30T03:32:21;14.00;99.90
27376;DHT22;14844;51.302;6.354;2023-07-30T03:34:46;14.00;99.90
27376;DHT22;14844;51.302;6.354;2023-07-30T03:37:12;14.00;99.90
27376;DHT22;14844;51.302;6.354;2023-07-30T03:39:37;14.00;99.90
27376;DHT22;14844;51.302;6.354;2023-07-30T03:42:03;14.10;99.90
27376;DHT22;14844;51.302;6.354;2023-07-30T03:44:28;14.10;99.90
27376;DHT22;14844;51.302;6.354;2023-07-30T03:46:54;14.10;99.90
27376;DHT22;14844;51.302;6.354;2023-07-30T03:49:19;14.10;99.90
27376;DHT22;14844;51.302;6.354;2023-07-30T03:51:45;14.10;99.90
27376;DHT22;14844;51.302;6.354;2023-07-30T03:54:10;14.20;99.90
27376;DHT22;14844;51.302;6.354;2023-07-30T03:56:36;14.20;99.90
27376;DHT22;14844;51.302;6.354;2023-07-30T03:59:01;14.20;99.90
27376;DHT22;14844;51.302;6.354;2023-07-30T04:01:27;14.30;99.90
27376;DHT22;14844;51.302;6.354;2023-07-30T04:03:53;14.50;99.90
27376;DHT22;14844;51.302;6.354;2023-07-30T04:06:18;14.50;99.90
27376;DHT22;14844;51.302;6.354;2023-07-30T04:08:43;14.60;99.90
27376;DHT22;14844;51.302;6.354;2023-07-30T04:11:09;14.70;99.90
27376;DHT22;14844;51.302;6.354;2023-07-30T04:13:34;14.80;99.90
27376;DHT22;14844;51.302;6.354;2023-07-30T04:16:00;14.90;99.90
27376;DHT22;14844;51.302;6.354;2023-07-30T04:18:25;14.90;99.90
27376;DHT22;14844;51.302;6.354;2023-07-30T04:20:53;15.00;99.90
27376;DHT22;14844;51.302;6.354;2023-07-30T04:23:19;15.00;99.90
27376;DHT22;14844;51.302;6.354;2023-07-30T04:25:44;15.10;99.90
27376;DHT22;14844;51.302;6.354;2023-07-30T04:28:09;15.10;99.90
27376;DHT22;14844;51.302;6.354;2023-07-30T04:30:35;15.20;99.90
27376;DHT22;14844;51.302;6.354;2023-07-30T04:33:00;15.30;99.90
27376;DHT22;14844;51.302;6.354;2023-07-30T04:35:26;15.30;99.90
27376;DHT22;14844;51.302;6.354;2023-07-30T04:37:51;15.30;99.90
27376;DHT22;14844;51.302;6.354;2023-07-30T04:40:17;15.40;99.90
27376;DHT22;14844;51.302;6.354;2023-07-30T04:42:42;15.40;99.90
27376;DHT22;14844;51.302;6.354;2023-07-30T04:45:08;15.50;99.90
27376;DHT22;14844;51.302;6.354;2023-07-30T04:47:34;15.50;99.90
27376;DHT22;14844;51.302;6.354;2023-07-30T04:49:59;15.60;99.90
27376;DHT22;14844;51.302;6.354;2023-07-30T04:52:24;15.60;99.90
27376;DHT22;14844;51.302;6.354;2023-07-30T04:54:50;15.70;99.90
27376;DHT22;14844;51.302;6.354;2023-07-30T04:57:15;15.70;99.90
27376;DHT22;14844;51.302;6.354;2023-07-30T04:59:41;15.80;99.90
27376;DHT22;14844;51.302;6.354;2023-07-30T05:02:06;15.80;99.90
27376;DHT22;14844;51.302;6.354;2023-07-30T05:04:32;15.90;99.90
27376;DHT22;14844;51.302;6.354;2023-07-30T05:06:58;15.90;99.90
27376;DHT22;14844;51.302;6.354;2023-07-30T05:09:23;16.00;99.90
27376;DHT22;14844;51.302;6.354;2023-07-30T05:11:49;16.00;99.90
27376;DHT22;14844;51.302;6.354;2023-07-30T05:14:14;15.90;99.90
27376;DHT22;14844;51.302;6.354;2023-07-30T05:16:39;16.00;99.90
27376;DHT22;14844;51.302;6.354;2023-07-30T05:19:05;15.90;99.90
27376;DHT22;14844;51.302;6.354;2023-07-30T05:21:30;15.90;99.90
27376;DHT22;14844;51.302;6.354;2023-07-30T05:23:56;15.90;99.90
27376;DHT22;14844;51.302;6.354;2023-07-30T05:26:21;15.90;99.90
27376;DHT22;14844;51.302;6.354;2023-07-30T05:28:47;15.90;99.90
27376;DHT22;14844;51.302;6.354;2023-07-30T05:31:12;15.90;99.90
27376;DHT22;14844;51.302;6.354;2023-07-30T05:33:38;15.90;99.90
27376;DHT22;14844;51.302;6.354;2023-07-30T05:36:03;15.90;99.90
27376;DHT22;14844;51.302;6.354;2023-07-30T05:38:29;15.90;99.90
27376;DHT22;14844;51.302;6.354;2023-07-30T05:40:54;16.00;99.90
27376;DHT22;14844;51.302;6.354;2023-07-30T05:43:19;16.10;99.90
27376;DHT22;14844;51.302;6.354;2023-07-30T05:45:45;16.10;99.90
27376;DHT22;14844;51.302;6.354;2023-07-30T05:48:10;16.10;99.90
27376;DHT22;14844;51.302;6.354;2023-07-30T05:50:36;16.10;99.90
27376;DHT22;14844;51.302;6.354;2023-07-30T05:53:01;16.10;99.90
27376;DHT22;14844;51.302;6.354;2023-07-30T05:55:27;16.10;99.90
27376;DHT22;14844;51.302;6.354;2023-07-30T05:57:52;16.10;99.90
27376;DHT22;14844;51.302;6.354;2023-07-30T06:00:18;16.20;99.90
27376;DHT22;14844;51.302;6.354;2023-07-30T06:02:44;16.20;99.90
27376;DHT22;14844;51.302;6.354;2023-07-30T06:05:09;16.30;99.90
27376;DHT22;14844;51.302;6.354;2023-07-30T06:07:35;16.50;99.90
27376;DHT22;14844;51.302;6.354;2023-07-30T06:10:01;16.40;99.90
27376;DHT22;14844;51.302;6.354;2023-07-30T06:12:26;16.50;99.90
27376;DHT22;14844;51.302;6.354;2023-07-30T06:14:51;16.60;99.90
27376;DHT22;14844;51.302;6.354;2023-07-30T06:17:17;16.80;99.90
27376;DHT22;14844;51.302;6.354;2023-07-30T06:19:42;16.80;99.90
27376;DHT22;14844;51.302;6.354;2023-07-30T06:22:08;16.90;99.90
27376;DHT22;14844;51.302;6.354;2023-07-30T06:24:33;17.00;99.90
27376;DHT22;14844;51.302;6.354;2023-07-30T06:26:59;17.00;99.90
27376;DHT22;14844;51.302;6.354;2023-07-30T06:29:24;16.90;99.90
27376;DHT22;14844;51.302;6.354;2023-07-30T06:31:50;17.00;99.90
27376;DHT22;14844;51.302;6.354;2023-07-30T06:34:15;16.90;99.90
27376;DHT22;14844;51.302;6.354;2023-07-30T06:36:41;16.90;99.90
27376;DHT22;14844;51.302;6.354;2023-07-30T06:39:06;16.90;99.90
27376;DHT22;14844;51.302;6.354;2023-07-30T06:41:31;17.00;99.90
27376;DHT22;14844;51.302;6.354;2023-07-30T06:43:57;17.10;99.90
27376;DHT22;14844;51.302;6.354;2023-07-30T06:46:35;17.10;99.90
27376;DHT22;14844;51.302;6.354;2023-07-30T06:49:00;17.30;99.90
27376;DHT22;14844;51.302;6.354;2023-07-30T06:51:26;17.40;99.90
27376;DHT22;14844;51.302;6.354;2023-07-30T06:53:52;17.40;99.90
27376;DHT22;14844;51.302;6.354;2023-07-30T06:56:17;17.60;99.90
27376;DHT22;14844;51.302;6.354;2023-07-30T06:58:43;17.70;99.90
27376;DHT22;14844;51.302;6.354;2023-07-30T07:01:08;17.70;99.90
27376;DHT22;14844;51.302;6.354;2023-07-30T07:03:34;17.70;99.90
27376;DHT22;14844;51.302;6.354;2023-07-30T07:05:59;17.80;99.90
27376;DHT22;14844;51.302;6.354;2023-07-30T07:08:24;17.90;99.90
27376;DHT22;14844;51.302;6.354;2023-07-30T07:10:50;17.80;99.90
27376;DHT22;14844;51.302;6.354;2023-07-30T07:13:16;17.80;99.90
27376;DHT22;14844;51.302;6.354;2023-07-30T07:15:42;17.90;99.90
27376;DHT22;14844;51.302;6.354;2023-07-30T07:18:07;18.00;99.90
27376;DHT22;14844;51.302;6.354;2023-07-30T07:20:33;18.10;99.90
27376;DHT22;14844;51.302;6.354;2023-07-30T07:22:58;18.20;99.90
27376;DHT22;14844;51.302;6.354;2023-07-30T07:25:23;18.10;99.90
27376;DHT22;14844;51.302;6.354;2023-07-30T07:27:50;18.00;99.90
27376;DHT22;14844;51.302;6.354;2023-07-30T07:30:15;18.10;99.90
27376;DHT22;14844;51.302;6.354;2023-07-30T07:32:41;18.20;99.90
27376;DHT22;14844;51.302;6.354;2023-07-30T07:35:06;18.30;99.90
27376;DHT22;14844;51.302;6.354;2023-07-30T07:37:32;18.30;99.90
27376;DHT22;14844;51.302;6.354;2023-07-30T07:39:58;18.20;99.90
27376;DHT22;14844;51.302;6.354;2023-07-30T07:42:23;18.20;99.90
27376;DHT22;14844;51.302;6.354;2023-07-30T07:44:49;18.40;99.90
27376;DHT22;14844;51.302;6.354;2023-07-30T07:47:15;18.30;99.90
27376;DHT22;14844;51.302;6.354;2023-07-30T07:49:40;18.30;99.90
27376;DHT22;14844;51.302;6.354;2023-07-30T07:52:06;18.20;99.90
27376;DHT22;14844;51.302;6.354;2023-07-30T07:54:31;18.10;99.90
27376;DHT22;14844;51.302;6.354;2023-07-30T07:56:57;18.20;99.90
27376;DHT22;14844;51.302;6.354;2023-07-30T07:59:23;18.10;99.90
27376;DHT22;14844;51.302;6.354;2023-07-30T08:01:48;18.10;99.90
27376;DHT22;14844;51.302;6.354;2023-07-30T08:04:14;18.20;99.90
27376;DHT22;14844;51.302;6.354;2023-07-30T08:06:40;18.10;99.90
27376;DHT22;14844;51.302;6.354;2023-07-30T08:09:05;18.10;99.90
27376;DHT22;14844;51.302;6.354;2023-07-30T08:11:31;18.10;99.90
27376;DHT22;14844;51.302;6.354;2023-07-30T08:14:01;18.20;99.90
27376;DHT22;14844;51.302;6.354;2023-07-30T08:17:08;18.30;99.90
27376;DHT22;14844;51.302;6.354;2023-07-30T08:19:34;18.40;99.90
27376;DHT22;14844;51.302;6.354;2023-07-30T08:21:59;18.50;99.90
27376;DHT22;14844;51.302;6.354;2023-07-30T08:24:25;18.50;99.90
27376;DHT22;14844;51.302;6.354;2023-07-30T08:26:50;18.40;99.90
27376;DHT22;14844;51.302;6.354;2023-07-30T08:29:16;18.30;99.90
27376;DHT22;14844;51.302;6.354;2023-07-30T08:31:41;18.20;99.90
27376;DHT22;14844;51.302;6.354;2023-07-30T08:34:07;18.10;99.90
27376;DHT22;14844;51.302;6.354;2023-07-30T08:36:32;18.10;99.90
27376;DHT22;14844;51.302;6.354;2023-07-30T08:38:58;18.20;99.90
27376;DHT22;14844;51.302;6.354;2023-07-30T08:41:24;18.30;99.90
27376;DHT22;14844;51.302;6.354;2023-07-30T08:43:49;18.30;99.90
27376;DHT22;14844;51.302;6.354;2023-07-30T08:46:17;18.30;99.90
27376;DHT22;14844;51.302;6.354;2023-07-30T08:48:42;18.50;99.90
27376;DHT22;14844;51.302;6.354;2023-07-30T08:51:08;18.80;99.90
27376;DHT22;14844;51.302;6.354;2023-07-30T08:53:33;18.80;99.90
27376;DHT22;14844;51.302;6.354;2023-07-30T08:55:59;18.70;99.90
27376;DHT22;14844;51.302;6.354;2023-07-30T08:58:28;18.80;99.90
27376;DHT22;14844;51.302;6.354;2023-07-30T09:00:55;19.10;99.90
27376;DHT22;14844;51.302;6.354;2023-07-30T09:03:21;19.40;99.90
27376;DHT22;14844;51.302;6.354;2023-07-30T09:05:48;19.80;99.90
27376;DHT22;14844;51.302;6.354;2023-07-30T09:08:14;19.90;99.90
27376;DHT22;14844;51.302;6.354;2023-07-30T09:10:39;20.10;99.90
27376;DHT22;14844;51.302;6.354;2023-07-30T09:13:05;20.20;99.90
27376;DHT22;14844;51.302;6.354;2023-07-30T09:15:32;20.40;99.90
27376;DHT22;14844;51.302;6.354;2023-07-30T09:17:58;20.60;99.90
27376;DHT22;14844;51.302;6.354;2023-07-30T09:20:23;20.40;99.90
27376;DHT22;14844;51.302;6.354;2023-07-30T09:22:49;20.80;99.90
27376;DHT22;14844;51.302;6.354;2023-07-30T09:25:18;20.90;99.90
27376;DHT22;14844;51.302;6.354;2023-07-30T09:27:50;20.70;99.90
27376;DHT22;14844;51.302;6.354;2023-07-30T09:30:15;21.10;99.90
27376;DHT22;14844;51.302;6.354;2023-07-30T09:32:50;21.30;99.90
27376;DHT22;14844;51.302;6.354;2023-07-30T09:35:16;21.50;99.90
27376;DHT22;14844;51.302;6.354;2023-07-30T09:37:42;21.70;99.90
27376;DHT22;14844;51.302;6.354;2023-07-30T09:40:15;21.90;99.90
27376;DHT22;14844;51.302;6.354;2023-07-30T09:42:44;22.00;99.90
27376;DHT22;14844;51.302;6.354;2023-07-30T09:45:16;22.50;99.90
27376;DHT22;14844;51.302;6.354;2023-07-30T09:47:45;22.40;99.90
27376;DHT22;14844;51.302;6.354;2023-07-30T09:50:11;22.20;99.90
27376;DHT22;14844;51.302;6.354;2023-07-30T09:52:36;22.00;99.90
27376;DHT22;14844;51.302;6.354;2023-07-30T09:55:02;21.60;99.90
27376;DHT22;14844;51.302;6.354;2023-07-30T09:57:30;21.20;99.90
27376;DHT22;14844;51.302;6.354;2023-07-30T09:59:55;20.70;99.90
27376;DHT22;14844;51.302;6.354;2023-07-30T10:02:21;20.60;99.90
27376;DHT22;14844;51.302;6.354;2023-07-30T10:04:47;20.50;99.90
27376;DHT22;14844;51.302;6.354;2023-07-30T10:07:19;20.30;99.90
27376;DHT22;14844;51.302;6.354;2023-07-30T10:09:45;20.30;99.90
27376;DHT22;14844;51.302;6.354;2023-07-30T10:12:20;20.40;99.90
27376;DHT22;14844;51.302;6.354;2023-07-30T10:14:45;20.60;99.90
27376;DHT22;14844;51.302;6.354;2023-07-30T10:17:12;21.10;99.90
27376;DHT22;14844;51.302;6.354;2023-07-30T10:19:37;21.50;99.90
27376;DHT22;14844;51.302;6.354;2023-07-30T10:24:38;21.70;99.90
27376;DHT22;14844;51.302;6.354;2023-07-30T10:27:07;21.50;99.90
27376;DHT22;14844;51.302;6.354;2023-07-30T10:29:34;21.20;99.90
27376;DHT22;14844;51.302;6.354;2023-07-30T10:32:01;21.20;99.90
27376;DHT22;14844;51.302;6.354;2023-07-30T10:34:43;21.20;99.90
27376;DHT22;14844;51.302;6.354;2023-07-30T10:37:09;21.00;99.90
27376;DHT22;14844;51.302;6.354;2023-07-30T10:39:34;20.90;99.90
27376;DHT22;14844;51.302;6.354;2023-07-30T10:42:00;21.10;99.90
27376;DHT22;14844;51.302;6.354;2023-07-30T10:44:26;21.20;99.90
27376;DHT22;14844;51.302;6.354;2023-07-30T10:46:56;21.30;99.90
27376;DHT22;14844;51.302;6.354;2023-07-30T10:49:21;21.10;99.90
27376;DHT22;14844;51.302;6.354;2023-07-30T10:51:47;21.20;99.90
27376;DHT22;14844;51.302;6.354;2023-07-30T10:54:13;21.60;99.90
27376;DHT22;14844;51.302;6.354;2023-07-30T10:56:38;21.80;99.90
27376;DHT22;14844;51.302;6.354;2023-07-30T10:59:05;21.90;99.90
27376;DHT22;14844;51.302;6.354;2023-07-30T11:01:31;22.20;99.90
27376;DHT22;14844;51.302;6.354;2023-07-30T11:03:57;22.40;99.90
27376;DHT22;14844;51.302;6.354;2023-07-30T11:06:23;22.10;99.90
27376;DHT22;14844;51.302;6.354;2023-07-30T11:08:49;22.00;99.90
27376;DHT22;14844;51.302;6.354;2023-07-30T11:11:14;21.50;99.90
27376;DHT22;14844;51.302;6.354;2023-07-30T11:13:41;21.30;99.90
27376;DHT22;14844;51.302;6.354;2023-07-30T11:16:07;21.50;99.90
27376;DHT22;14844;51.302;6.354;2023-07-30T11:18:33;22.00;99.90
27376;DHT22;14844;51.302;6.354;2023-07-30T11:21:06;22.10;99.90
27376;DHT22;14844;51.302;6.354;2023-07-30T11:23:32;22.30;99.90
27376;DHT22;14844;51.302;6.354;2023-07-30T11:25:57;22.70;99.50
27376;DHT22;14844;51.302;6.354;2023-07-30T11:28:33;22.60;98.60
27376;DHT22;14844;51.302;6.354;2023-07-30T11:30:59;22.50;99.00
27376;DHT22;14844;51.302;6.354;2023-07-30T11:33:26;22.40;98.40
27376;DHT22;14844;51.302;6.354;2023-07-30T11:35:52;22.20;97.90
27376;DHT22;14844;51.302;6.354;2023-07-30T11:38:17;22.50;98.20
27376;DHT22;14844;51.302;6.354;2023-07-30T11:40:45;22.60;98.70
27376;DHT22;14844;51.302;6.354;2023-07-30T11:43:11;22.60;99.20
27376;DHT22;14844;51.302;6.354;2023-07-30T11:45:36;22.50;98.50
27376;DHT22;14844;51.302;6.354;2023-07-30T11:48:08;22.30;97.70
27376;DHT22;14844;51.302;6.354;2023-07-30T11:50:50;21.90;97.00
27376;DHT22;14844;51.302;6.354;2023-07-30T11:53:16;21.80;96.90
27376;DHT22;14844;51.302;6.354;2023-07-30T11:55:43;21.60;97.70
27376;DHT22;14844;51.302;6.354;2023-07-30T11:58:09;21.50;98.50
27376;DHT22;14844;51.302;6.354;2023-07-30T12:00:38;21.80;99.40
27376;DHT22;14844;51.302;6.354;2023-07-30T12:03:05;21.60;98.00
27376;DHT22;14844;51.302;6.354;2023-07-30T12:05:34;21.40;98.50
27376;DHT22;14844;51.302;6.354;2023-07-30T12:08:00;21.50;99.20
27376;DHT22;14844;51.302;6.354;2023-07-30T12:10:28;21.80;98.90
27376;DHT22;14844;51.302;6.354;2023-07-30T12:12:53;22.20;98.50
27376;DHT22;14844;51.302;6.354;2023-07-30T12:15:19;22.30;96.80
27376;DHT22;14844;51.302;6.354;2023-07-30T12:17:44;22.50;96.80
27376;DHT22;14844;51.302;6.354;2023-07-30T12:20:11;22.40;97.00
27376;DHT22;14844;51.302;6.354;2023-07-30T12:22:36;21.90;96.80
27376;DHT22;14844;51.302;6.354;2023-07-30T12:25:03;21.70;98.10
27376;DHT22;14844;51.302;6.354;2023-07-30T12:27:29;21.60;98.20
27376;DHT22;14844;51.302;6.354;2023-07-30T12:29:55;21.60;97.90
27376;DHT22;14844;51.302;6.354;2023-07-30T12:32:20;21.70;97.80
27376;DHT22;14844;51.302;6.354;2023-07-30T12:34:46;21.70;98.10
27376;DHT22;14844;51.302;6.354;2023-07-30T12:37:11;21.50;98.10
27376;DHT22;14844;51.302;6.354;2023-07-30T12:39:37;21.40;98.40
27376;DHT22;14844;51.302;6.354;2023-07-30T12:42:02;21.50;98.00
27376;DHT22;14844;51.302;6.354;2023-07-30T12:44:28;21.50;98.20
27376;DHT22;14844;51.302;6.354;2023-07-30T12:46:53;21.60;98.10
27376;DHT22;14844;51.302;6.354;2023-07-30T12:49:19;21.50;97.40
27376;DHT22;14844;51.302;6.354;2023-07-30T12:51:44;21.40;97.20
27376;DHT22;14844;51.302;6.354;2023-07-30T12:54:10;21.50;97.60
27376;DHT22;14844;51.302;6.354;2023-07-30T12:56:36;21.60;98.10
27376;DHT22;14844;51.302;6.354;2023-07-30T12:59:01;21.80;97.70
27376;DHT22;14844;51.302;6.354;2023-07-30T13:01:27;22.00;97.70
27376;DHT22;14844;51.302;6.354;2023-07-30T13:03:52;22.20;97.00
27376;DHT22;14844;51.302;6.354;2023-07-30T13:06:22;22.40;97.10
27376;DHT22;14844;51.302;6.354;2023-07-30T13:08:48;22.60;97.00
27376;DHT22;14844;51.302;6.354;2023-07-30T13:11:13;22.60;96.10
27376;DHT22;14844;51.302;6.354;2023-07-30T13:13:39;22.50;96.10
27376;DHT22;14844;51.302;6.354;2023-07-30T13:16:05;22.30;96.00
27376;DHT22;14844;51.302;6.354;2023-07-30T13:18:30;22.30;96.40
27376;DHT22;14844;51.302;6.354;2023-07-30T13:20:56;22.30;97.20
27376;DHT22;14844;51.302;6.354;2023-07-30T13:23:21;22.30;97.20
27376;DHT22;14844;51.302;6.354;2023-07-30T13:25:47;22.20;96.60
27376;DHT22;14844;51.302;6.354;2023-07-30T13:28:12;22.00;97.40
27376;DHT22;14844;51.302;6.354;2023-07-30T13:30:38;21.80;98.40
27376;DHT22;14844;51.302;6.354;2023-07-30T13:33:03;21.70;97.80
27376;DHT22;14844;51.302;6.354;2023-07-30T13:35:29;21.60;98.50
27376;DHT22;14844;51.302;6.354;2023-07-30T13:37:54;21.50;97.60
27376;DHT22;14844;51.302;6.354;2023-07-30T13:40:20;21.40;98.10
27376;DHT22;14844;51.302;6.354;2023-07-30T13:42:45;21.40;98.30
27376;DHT22;14844;51.302;6.354;2023-07-30T13:45:11;21.40;98.10
27376;DHT22;14844;51.302;6.354;2023-07-30T13:47:36;21.70;97.40
27376;DHT22;14844;51.302;6.354;2023-07-30T13:50:02;22.10;97.20
27376;DHT22;14844;51.302;6.354;2023-07-30T13:52:27;22.20;97.10
27376;DHT22;14844;51.302;6.354;2023-07-30T13:54:53;22.40;96.70
27376;DHT22;14844;51.302;6.354;2023-07-30T13:57:22;22.50;94.60
27376;DHT22;14844;51.302;6.354;2023-07-30T13:59:48;22.40;95.10
27376;DHT22;14844;51.302;6.354;2023-07-30T14:02:13;22.40;95.30
27376;DHT22;14844;51.302;6.354;2023-07-30T14:04:39;22.70;95.20
27376;DHT22;14844;51.302;6.354;2023-07-30T14:07:04;22.90;95.60
27376;DHT22;14844;51.302;6.354;2023-07-30T14:09:30;23.00;95.70
27376;DHT22;14844;51.302;6.354;2023-07-30T14:11:59;23.00;95.90
27376;DHT22;14844;51.302;6.354;2023-07-30T14:14:24;22.80;95.60
27376;DHT22;14844;51.302;6.354;2023-07-30T14:16:53;22.70;95.70
27376;DHT22;14844;51.302;6.354;2023-07-30T14:19:18;22.30;96.40
27376;DHT22;14844;51.302;6.354;2023-07-30T14:21:43;22.10;96.50
27376;DHT22;14844;51.302;6.354;2023-07-30T14:24:10;22.00;96.60
27376;DHT22;14844;51.302;6.354;2023-07-30T14:26:35;22.00;97.10
27376;DHT22;14844;51.302;6.354;2023-07-30T14:29:01;22.20;96.50
27376;DHT22;14844;51.302;6.354;2023-07-30T14:31:26;22.50;95.60
27376;DHT22;14844;51.302;6.354;2023-07-30T14:33:52;22.70;94.70
27376;DHT22;14844;51.302;6.354;2023-07-30T14:36:17;23.10;94.40
27376;DHT22;14844;51.302;6.354;2023-07-30T14:38:43;23.10;93.50
27376;DHT22;14844;51.302;6.354;2023-07-30T14:41:08;23.20;93.70
27376;DHT22;14844;51.302;6.354;2023-07-30T14:43:34;23.30;93.50
27376;DHT22;14844;51.302;6.354;2023-07-30T14:46:00;23.50;92.40
27376;DHT22;14844;51.302;6.354;2023-07-30T14:48:25;23.50;92.80
27376;DHT22;14844;51.302;6.354;2023-07-30T14:50:51;23.40;92.70
27376;DHT22;14844;51.302;6.354;2023-07-30T14:53:16;23.20;92.40
27376;DHT22;14844;51.302;6.354;2023-07-30T14:55:42;23.20;92.30
27376;DHT22;14844;51.302;6.354;2023-07-30T14:58:07;23.00;92.40
27376;DHT22;14844;51.302;6.354;2023-07-30T15:00:34;22.70;93.00
27376;DHT22;14844;51.302;6.354;2023-07-30T15:05:35;22.50;93.50
27376;DHT22;14844;51.302;6.354;2023-07-30T15:08:00;22.70;92.80
27376;DHT22;14844;51.302;6.354;2023-07-30T15:10:27;23.80;91.80
27376;DHT22;14844;51.302;6.354;2023-07-30T15:12:53;24.70;90.90
27376;DHT22;14844;51.302;6.354;2023-07-30T15:15:18;25.50;88.40
27376;DHT22;14844;51.302;6.354;2023-07-30T15:17:44;26.50;87.10
27376;DHT22;14844;51.302;6.354;2023-07-30T15:20:09;26.50;85.10
27376;DHT22;14844;51.302;6.354;2023-07-30T15:22:35;25.90;84.10
27376;DHT22;14844;51.302;6.354;2023-07-30T15:25:00;25.30;86.80
27376;DHT22;14844;51.302;6.354;2023-07-30T15:27:26;25.20;86.10